createdAt,value
2023-05-11T00:00:15.234Z,10.74
2023-05-11T00:02:41.982Z,10.70
2023-05-11T00:05:09.924Z,10.69
2023-05-11T00:07:36.686Z,10.68
2023-05-11T00:10:03.250Z,10.72
2023-05-11T00:12:31.196Z,10.71
2023-05-11T00:14:58.078Z,10.76
2023-05-11T00:17:24.565Z,10.75
2023-05-11T00:19:51.157Z,10.73
2023-05-11T00:22:17.964Z,10.69
2023-05-11T00:24:44.599Z,10.69
2023-05-11T00:27:11.281Z,10.67
2023-05-11T00:29:39.587Z,10.62
2023-05-11T00:32:06.188Z,10.62
2023-05-11T00:34:33.340Z,10.67
2023-05-11T00:37:00.380Z,10.59
2023-05-11T00:39:27.366Z,10.61
2023-05-11T00:41:54.231Z,10.63
2023-05-11T00:44:21.034Z,10.71
2023-05-11T00:46:47.788Z,10.71
2023-05-11T00:49:14.461Z,10.67
2023-05-11T00:51:41.260Z,10.68
2023-05-11T00:54:08.852Z,10.68
2023-05-11T00:56:36.313Z,10.68
2023-05-11T00:59:03.276Z,10.67
2023-05-11T01:01:29.841Z,10.68
2023-05-11T01:03:56.322Z,10.64
2023-05-11T01:06:27.963Z,10.57
2023-05-11T01:09:03.632Z,10.56
2023-05-11T01:11:44.354Z,10.53
2023-05-11T01:14:29.286Z,10.53
2023-05-11T01:17:04.139Z,10.53
2023-05-11T01:20:07.105Z,10.56
2023-05-11T01:22:38.098Z,10.53
2023-05-11T01:25:53.634Z,10.50
2023-05-11T01:28:37.293Z,10.46
2023-05-11T01:31:11.791Z,10.46
2023-05-11T01:33:55.314Z,10.43
2023-05-11T01:36:28.609Z,10.44
2023-05-11T01:39:00.657Z,10.38
2023-05-11T01:41:29.605Z,10.44
2023-05-11T01:44:01.267Z,10.44
2023-05-11T01:46:33.502Z,10.46
2023-05-11T01:49:03.438Z,10.48
2023-05-11T01:51:34.512Z,10.48
2023-05-11T01:54:02.566Z,10.53
2023-05-11T01:56:30.277Z,10.55
2023-05-11T01:58:58.655Z,10.55
2023-05-11T02:01:27.492Z,10.56
2023-05-11T02:03:55.416Z,10.55
2023-05-11T02:06:25.147Z,10.54
2023-05-11T02:08:53.362Z,10.44
2023-05-11T02:11:22.652Z,10.50
2023-05-11T02:13:51.738Z,10.49
2023-05-11T02:16:19.580Z,10.53
2023-05-11T02:18:47.674Z,10.57
2023-05-11T02:21:16.542Z,10.60
2023-05-11T02:23:44.918Z,10.59
2023-05-11T02:26:15.048Z,10.56
2023-05-11T02:28:41.585Z,10.56
2023-05-11T02:31:12.631Z,10.59
2023-05-11T02:33:44.857Z,10.58
2023-05-11T02:36:15.820Z,10.61
2023-05-11T02:38:46.142Z,10.58
2023-05-11T02:41:17.734Z,10.60
2023-05-11T02:43:49.334Z,10.60
2023-05-11T02:46:20.689Z,10.57
2023-05-11T02:48:52.142Z,10.57
2023-05-11T02:51:24.871Z,10.59
2023-05-11T02:53:53.467Z,10.62
2023-05-11T02:56:20.846Z,10.68
2023-05-11T02:58:47.890Z,10.65
2023-05-11T03:01:15.079Z,10.65
2023-05-11T03:03:41.887Z,10.60
2023-05-11T03:06:09.107Z,10.51
2023-05-11T03:08:36.149Z,10.53
2023-05-11T03:11:04.481Z,10.50
2023-05-11T03:13:32.271Z,10.48
2023-05-11T03:16:00.759Z,10.55
2023-05-11T03:18:32.378Z,10.53
2023-05-11T03:21:00.869Z,10.57
2023-05-11T03:23:29.028Z,10.56
2023-05-11T03:25:56.430Z,10.58
2023-05-11T03:28:24.416Z,10.59
2023-05-11T03:30:53.536Z,10.53
2023-05-11T03:33:20.281Z,10.55
2023-05-11T03:35:49.480Z,10.55
2023-05-11T03:38:16.823Z,10.49
2023-05-11T03:40:46.254Z,10.51
2023-05-11T03:43:16.690Z,10.51
2023-05-11T03:45:45.047Z,10.44
2023-05-11T03:48:17.359Z,10.42
2023-05-11T03:50:44.617Z,10.38
2023-05-11T03:53:12.446Z,10.38
2023-05-11T03:55:39.348Z,10.42
2023-05-11T03:58:11.252Z,10.50
2023-05-11T04:00:42.138Z,10.57
2023-05-11T04:03:12.170Z,10.56
2023-05-11T04:05:38.703Z,10.58
2023-05-11T04:08:05.751Z,10.59
2023-05-11T04:10:32.616Z,10.54
2023-05-11T04:12:59.438Z,10.48
2023-05-11T04:15:25.923Z,10.47
2023-05-11T04:17:52.874Z,10.48
2023-05-11T04:20:19.883Z,10.49
2023-05-11T04:22:47.344Z,10.44
2023-05-11T04:25:15.261Z,10.48
2023-05-11T04:27:41.775Z,10.42
2023-05-11T04:30:09.090Z,10.53
2023-05-11T04:32:35.688Z,10.51
2023-05-11T04:35:04.707Z,10.54
2023-05-11T04:37:31.328Z,10.52
2023-05-11T04:39:59.146Z,10.51
2023-05-11T04:42:25.616Z,10.51
2023-05-11T04:44:55.055Z,10.51
2023-05-11T04:47:21.898Z,10.49
2023-05-11T04:49:48.667Z,10.51
2023-05-11T04:52:15.479Z,10.51
2023-05-11T04:54:42.197Z,10.52
2023-05-11T04:57:09.101Z,10.57
2023-05-11T04:59:35.623Z,10.62
2023-05-11T05:02:02.242Z,10.66
2023-05-11T05:04:29.048Z,10.61
2023-05-11T05:06:55.549Z,10.59
2023-05-11T05:09:22.443Z,10.59
2023-05-11T05:11:49.067Z,10.63
2023-05-11T05:14:15.671Z,10.69
2023-05-11T05:16:42.225Z,10.70
2023-05-11T05:19:09.114Z,10.71
2023-05-11T05:21:35.944Z,10.76
2023-05-11T05:24:03.309Z,10.79
2023-05-11T05:26:30.521Z,10.72
2023-05-11T05:28:57.181Z,10.78
2023-05-11T05:31:24.760Z,10.78
2023-05-11T05:33:51.297Z,10.89
2023-05-11T05:36:17.881Z,10.89
2023-05-11T05:38:44.508Z,10.86
2023-05-11T05:41:11.334Z,10.81
2023-05-11T05:43:38.262Z,10.86
2023-05-11T05:46:05.454Z,10.82
2023-05-11T05:48:33.361Z,10.83
2023-05-11T05:51:00.024Z,10.92
2023-05-11T05:53:26.791Z,10.94
2023-05-11T05:55:53.659Z,11.02
2023-05-11T05:58:20.092Z,10.94
2023-05-11T06:00:46.992Z,11.04
2023-05-11T06:03:13.628Z,11.12
2023-05-11T06:05:41.980Z,11.08
2023-05-11T06:08:10.610Z,11.04
2023-05-11T06:10:38.020Z,11.19
2023-05-11T06:13:04.804Z,11.20
2023-05-11T06:15:31.418Z,11.20
2023-05-11T06:17:59.886Z,11.13
2023-05-11T06:20:26.554Z,11.12
2023-05-11T06:22:53.157Z,11.07
2023-05-11T06:25:19.703Z,11.05
2023-05-11T06:27:46.496Z,11.07
2023-05-11T06:30:13.494Z,11.02
2023-05-11T06:32:40.371Z,11.17
2023-05-11T06:35:07.353Z,11.16
2023-05-11T06:37:34.257Z,11.13
2023-05-11T06:40:01.156Z,11.19
2023-05-11T06:42:28.053Z,11.15
2023-05-11T06:44:54.595Z,11.20
2023-05-11T06:47:21.374Z,11.12
2023-05-11T06:49:47.883Z,11.10
2023-05-11T06:52:14.401Z,11.24
2023-05-11T06:54:41.352Z,11.29
2023-05-11T06:57:08.719Z,11.07
2023-05-11T06:59:35.549Z,11.06
2023-05-11T07:02:02.279Z,11.27
2023-05-11T07:04:28.874Z,11.38
2023-05-11T07:06:57.085Z,11.23
2023-05-11T07:09:23.864Z,11.33
2023-05-11T07:11:51.190Z,11.48
2023-05-11T07:14:17.878Z,11.55
2023-05-11T07:16:44.653Z,11.28
2023-05-11T07:19:11.915Z,11.29
2023-05-11T07:21:38.506Z,11.49
2023-05-11T07:24:05.147Z,11.54
2023-05-11T07:26:31.713Z,11.33
2023-05-11T07:28:58.546Z,11.51
2023-05-11T07:31:25.195Z,11.63
2023-05-11T07:33:51.857Z,11.69
2023-05-11T07:36:18.386Z,11.30
2023-05-11T07:38:45.076Z,11.50
2023-05-11T07:41:12.692Z,11.59
2023-05-11T07:43:39.531Z,11.71
2023-05-11T07:46:06.787Z,11.94
2023-05-11T07:48:33.341Z,11.94
2023-05-11T07:50:59.856Z,12.09
2023-05-11T07:53:26.253Z,12.02
2023-05-11T07:55:53.052Z,12.05
2023-05-11T07:58:19.566Z,12.15
2023-05-11T08:00:46.349Z,11.94
2023-05-11T08:03:13.296Z,11.90
2023-05-11T08:05:40.657Z,12.12
2023-05-11T08:08:07.309Z,11.91
2023-05-11T08:10:35.133Z,11.68
2023-05-11T08:13:01.985Z,11.78
2023-05-11T08:15:28.862Z,11.68
2023-05-11T08:17:55.438Z,11.88
2023-05-11T08:20:24.507Z,11.76
2023-05-11T08:22:51.931Z,11.56
2023-05-11T08:25:20.387Z,11.39
2023-05-11T08:27:47.183Z,11.49
2023-05-11T08:30:14.319Z,11.59
2023-05-11T08:35:10.841Z,11.86
2023-05-11T08:37:37.454Z,11.91
2023-05-11T08:40:08.141Z,11.84
2023-05-11T08:42:35.531Z,11.88
2023-05-11T08:45:05.487Z,12.08
2023-05-11T08:47:32.626Z,12.23
2023-05-11T08:49:59.371Z,12.28
2023-05-11T08:52:26.733Z,12.46
2023-05-11T08:54:54.124Z,12.42
2023-05-11T08:57:20.971Z,12.20
2023-05-11T08:59:48.629Z,12.30
2023-05-11T09:02:19.710Z,12.36
2023-05-11T09:04:48.760Z,12.41
2023-05-11T09:07:17.098Z,12.29
2023-05-11T09:09:44.382Z,12.13
2023-05-11T09:12:13.421Z,12.30
2023-05-11T09:14:40.202Z,12.29
2023-05-11T09:17:07.151Z,12.12
2023-05-11T09:19:34.022Z,12.20
2023-05-11T09:22:01.036Z,12.21
2023-05-11T09:24:28.471Z,12.05
2023-05-11T09:27:09.191Z,11.93
2023-05-11T09:29:36.167Z,12.00
2023-05-11T09:32:03.107Z,12.04
2023-05-11T09:34:29.713Z,12.00
2023-05-11T09:36:57.336Z,11.91
2023-05-11T09:39:47.300Z,12.06
2023-05-11T09:42:24.062Z,12.04
2023-05-11T09:44:50.473Z,12.19
2023-05-11T09:47:20.148Z,12.24
2023-05-11T09:49:47.467Z,12.12
2023-05-11T09:52:18.747Z,12.26
2023-05-11T09:54:48.405Z,12.41
2023-05-11T09:57:30.172Z,12.54
2023-05-11T10:00:00.738Z,12.46
2023-05-11T10:02:28.189Z,12.74
2023-05-11T10:05:02.520Z,12.87
2023-05-11T10:07:33.744Z,12.85
2023-05-11T10:10:08.752Z,12.85
2023-05-11T10:12:36.468Z,13.33
2023-05-11T10:15:05.518Z,12.79
2023-05-11T10:17:33.122Z,12.17
2023-05-11T10:20:01.205Z,12.07
2023-05-11T10:22:29.936Z,12.29
2023-05-11T10:24:58.054Z,12.49
2023-05-11T10:27:25.387Z,12.83
2023-05-11T10:29:55.949Z,12.84
2023-05-11T10:32:22.882Z,13.16
2023-05-11T10:34:49.466Z,13.62
2023-05-11T10:37:20.862Z,13.51
2023-05-11T10:39:50.100Z,13.60
2023-05-11T10:42:32.633Z,13.53
2023-05-11T10:45:30.662Z,13.50
2023-05-11T10:48:32.933Z,13.53
2023-05-11T10:51:34.251Z,13.75
2023-05-11T10:54:22.486Z,13.60
2023-05-11T10:57:01.428Z,13.27
2023-05-11T10:59:37.562Z,13.09
2023-05-11T11:02:04.430Z,13.16
2023-05-11T11:04:51.705Z,12.85
2023-05-11T11:07:20.396Z,12.82
2023-05-11T11:09:57.226Z,12.84
2023-05-11T11:12:26.223Z,13.14
2023-05-11T11:15:04.043Z,13.30
2023-05-11T11:17:35.504Z,13.04
2023-05-11T11:20:05.088Z,13.12
2023-05-11T11:22:37.759Z,13.41
2023-05-11T11:25:07.315Z,13.41
2023-05-11T11:27:46.153Z,13.27
2023-05-11T11:30:29.443Z,13.07
2023-05-11T11:33:08.184Z,12.93
2023-05-11T11:35:41.596Z,13.04
2023-05-11T11:38:13.932Z,13.29
2023-05-11T11:40:51.642Z,13.52
2023-05-11T11:43:19.758Z,13.25
2023-05-11T11:46:03.229Z,13.59
2023-05-11T11:48:35.714Z,13.42
2023-05-11T11:51:09.304Z,13.45
2023-05-11T11:53:38.942Z,13.45
2023-05-11T11:56:07.541Z,13.59
2023-05-11T11:58:57.742Z,13.49
2023-05-11T12:01:27.349Z,13.57
2023-05-11T12:04:04.793Z,14.02
2023-05-11T12:06:39.688Z,13.63
2023-05-11T12:09:07.075Z,13.63
2023-05-11T12:11:34.295Z,13.38
2023-05-11T12:14:02.820Z,13.44
2023-05-11T12:16:29.955Z,13.20
2023-05-11T12:19:01.764Z,13.06
2023-05-11T12:21:32.026Z,13.38
2023-05-11T12:24:01.220Z,13.55
2023-05-11T12:26:29.697Z,13.77
2023-05-11T12:29:17.498Z,13.82
2023-05-11T12:31:46.134Z,13.69
2023-05-11T12:34:17.360Z,13.82
2023-05-11T12:36:49.289Z,14.13
2023-05-11T12:39:24.837Z,14.25
2023-05-11T12:41:53.798Z,14.15
2023-05-11T12:44:24.049Z,13.94
2023-05-11T12:46:51.983Z,14.10
2023-05-11T12:49:25.873Z,14.14
2023-05-11T12:51:59.555Z,14.34
2023-05-11T12:54:37.230Z,14.34
2023-05-11T12:57:05.550Z,13.96
2023-05-11T12:59:35.430Z,14.34
2023-05-11T13:02:16.399Z,14.31
2023-05-11T13:04:44.325Z,14.63
2023-05-11T13:07:11.919Z,14.98
2023-05-11T13:09:41.728Z,15.21
2023-05-11T13:12:10.343Z,14.84
2023-05-11T13:14:37.433Z,14.74
2023-05-11T13:17:04.450Z,14.93
2023-05-11T13:19:32.322Z,15.11
2023-05-11T13:21:59.373Z,15.00
2023-05-11T13:24:26.685Z,14.82
2023-05-11T13:26:54.203Z,14.71
2023-05-11T13:29:21.020Z,14.13
2023-05-11T13:31:53.160Z,14.06
2023-05-11T13:34:20.486Z,14.38
2023-05-11T13:36:47.886Z,14.62
2023-05-11T13:39:14.954Z,14.86
2023-05-11T13:41:41.488Z,14.87
2023-05-11T13:44:08.244Z,14.47
2023-05-11T13:46:35.832Z,14.68
2023-05-11T13:49:02.587Z,14.75
2023-05-11T13:51:30.421Z,14.83
2023-05-11T13:53:57.004Z,14.94
2023-05-11T13:56:23.565Z,15.19
2023-05-11T13:58:54.573Z,15.25
2023-05-11T14:01:21.873Z,14.66
2023-05-11T14:03:56.058Z,14.69
2023-05-11T14:06:24.053Z,15.09
2023-05-11T14:08:51.136Z,15.26
2023-05-11T14:11:17.789Z,15.50
2023-05-11T14:13:44.296Z,15.42
2023-05-11T14:16:10.884Z,14.78
2023-05-11T14:18:37.508Z,14.71
2023-05-11T14:21:04.459Z,14.89
2023-05-11T14:23:31.183Z,15.53
2023-05-11T14:25:57.957Z,15.40
2023-05-11T14:28:24.448Z,15.58
2023-05-11T14:30:53.460Z,15.76
2023-05-11T14:33:20.272Z,15.66
2023-05-11T14:35:48.286Z,15.31
2023-05-11T14:38:15.500Z,15.31
2023-05-11T14:40:42.222Z,15.75
2023-05-11T14:43:09.243Z,15.60
2023-05-11T14:45:36.942Z,15.39
2023-05-11T14:48:04.268Z,15.64
2023-05-11T14:50:31.084Z,15.51
2023-05-11T14:52:57.655Z,15.45
2023-05-11T14:55:27.308Z,15.20
2023-05-11T14:57:53.759Z,14.94
2023-05-11T15:00:20.816Z,15.02
2023-05-11T15:02:48.532Z,15.11
2023-05-11T15:05:15.311Z,15.45
2023-05-11T15:07:44.782Z,15.45
2023-05-11T15:10:11.549Z,15.58
2023-05-11T15:12:38.270Z,15.52
2023-05-11T15:15:05.398Z,15.46
2023-05-11T15:17:31.944Z,14.96
2023-05-11T15:19:58.385Z,15.21
2023-05-11T15:22:24.976Z,15.50
2023-05-11T15:24:51.812Z,15.51
2023-05-11T15:27:18.440Z,15.30
2023-05-11T15:29:45.144Z,15.49
2023-05-11T15:32:15.319Z,15.47
2023-05-11T15:34:55.479Z,15.35
2023-05-11T15:37:25.844Z,15.23
2023-05-11T15:39:52.365Z,15.14
2023-05-11T15:42:19.178Z,14.85
2023-05-11T15:44:45.700Z,14.80
2023-05-11T15:47:12.389Z,14.82
2023-05-11T15:49:40.304Z,14.97
2023-05-11T15:52:07.725Z,15.11
2023-05-11T15:54:36.212Z,15.11
2023-05-11T15:57:03.242Z,15.07
2023-05-11T15:59:29.876Z,14.88
2023-05-11T16:01:56.661Z,14.94
2023-05-11T16:04:24.602Z,15.02
2023-05-11T16:06:51.264Z,14.95
2023-05-11T16:09:18.080Z,14.75
2023-05-11T16:11:44.926Z,14.73
2023-05-11T16:14:13.107Z,14.49
2023-05-11T16:16:39.704Z,14.42
2023-05-11T16:19:06.630Z,14.35
2023-05-11T16:21:33.832Z,14.43
2023-05-11T16:24:00.350Z,14.30
2023-05-11T16:26:27.161Z,14.13
2023-05-11T16:28:54.523Z,14.40
2023-05-11T16:31:21.464Z,14.43
2023-05-11T16:33:48.422Z,14.30
2023-05-11T16:36:15.237Z,14.02
2023-05-11T16:38:42.253Z,13.86
2023-05-11T16:41:09.107Z,13.99
2023-05-11T16:43:38.122Z,14.12
2023-05-11T16:46:04.818Z,14.13
2023-05-11T16:48:34.751Z,14.09
2023-05-11T16:51:01.611Z,13.73
2023-05-11T16:53:28.170Z,13.78
2023-05-11T16:55:55.682Z,13.63
2023-05-11T16:58:23.269Z,13.46
2023-05-11T17:00:50.998Z,13.49
2023-05-11T17:03:18.900Z,13.70
2023-05-11T17:05:45.883Z,13.24
2023-05-11T17:08:13.367Z,13.13
2023-05-11T17:10:50.037Z,12.97
2023-05-11T17:13:17.722Z,12.82
2023-05-11T17:15:44.579Z,12.73
2023-05-11T17:18:14.170Z,12.76
2023-05-11T17:20:51.514Z,12.71
2023-05-11T17:23:18.446Z,12.25
2023-05-11T17:25:45.327Z,12.17
2023-05-11T17:28:12.541Z,12.16
2023-05-11T17:30:48.050Z,12.02
2023-05-11T17:33:15.697Z,12.12
2023-05-11T17:35:42.897Z,12.25
2023-05-11T17:38:09.810Z,12.30
2023-05-11T17:40:36.519Z,12.55
2023-05-11T17:43:03.389Z,12.42
2023-05-11T17:45:31.042Z,12.34
2023-05-11T17:48:00.687Z,12.21
2023-05-11T17:50:27.165Z,12.40
2023-05-11T17:52:53.636Z,12.13
2023-05-11T17:55:20.560Z,12.10
2023-05-11T17:57:47.682Z,12.04
2023-05-11T18:00:15.156Z,11.93
2023-05-11T18:02:41.734Z,11.84
2023-05-11T18:05:08.861Z,11.97
2023-05-11T18:07:35.290Z,11.99
2023-05-11T18:10:01.829Z,11.99
2023-05-11T18:12:28.918Z,11.91
2023-05-11T18:14:55.416Z,11.83
2023-05-11T18:17:21.940Z,11.72
2023-05-11T18:19:49.192Z,11.57
2023-05-11T18:22:15.786Z,11.65
2023-05-11T18:24:42.368Z,11.67
2023-05-11T18:27:08.835Z,11.59
2023-05-11T18:29:35.454Z,11.60
2023-05-11T18:32:04.812Z,11.53
2023-05-11T18:34:31.759Z,11.46
2023-05-11T18:36:58.919Z,11.44
2023-05-11T18:39:25.486Z,11.47
2023-05-11T18:41:52.372Z,11.48
2023-05-11T18:44:18.911Z,11.43
2023-05-11T18:46:46.351Z,11.53
2023-05-11T18:49:13.190Z,11.40
2023-05-11T18:51:39.844Z,11.31
2023-05-11T18:54:06.677Z,11.39
2023-05-11T18:56:33.296Z,11.32
2023-05-11T18:58:59.890Z,11.26
2023-05-11T19:01:36.229Z,11.22
2023-05-11T19:04:14.792Z,11.22
2023-05-11T19:06:41.475Z,11.19
2023-05-11T19:09:08.122Z,11.25
2023-05-11T19:11:36.168Z,11.25
2023-05-11T19:14:02.995Z,11.23
2023-05-11T19:16:29.455Z,11.19
2023-05-11T19:18:56.444Z,11.08
2023-05-11T19:21:23.433Z,11.01
2023-05-11T19:23:49.940Z,10.99
2023-05-11T19:26:16.393Z,10.96
2023-05-11T19:28:42.962Z,10.97
2023-05-11T19:31:09.747Z,10.98
2023-05-11T19:33:37.268Z,10.99
2023-05-11T19:36:03.871Z,10.98
2023-05-11T19:38:31.806Z,10.98
2023-05-11T19:40:59.587Z,10.94
2023-05-11T19:43:26.113Z,10.92
2023-05-11T19:45:54.590Z,10.90
2023-05-11T19:48:21.151Z,10.82
2023-05-11T19:50:48.482Z,10.77
2023-05-11T19:53:17.743Z,10.74
2023-05-11T19:55:46.590Z,10.72
2023-05-11T19:58:15.349Z,10.72
2023-05-11T20:00:42.393Z,10.68
2023-05-11T20:03:09.187Z,10.70
2023-05-11T20:05:35.999Z,10.69
2023-05-11T20:08:02.609Z,10.66
2023-05-11T20:10:30.545Z,10.65
2023-05-11T20:12:57.152Z,10.68
2023-05-11T20:15:24.064Z,10.68
2023-05-11T20:17:50.825Z,10.69
2023-05-11T20:20:17.899Z,10.72
2023-05-11T20:22:46.566Z,10.69
2023-05-11T20:25:18.366Z,10.66
2023-05-11T20:27:47.268Z,10.68
2023-05-11T20:30:14.693Z,10.62
2023-05-11T20:34:06.925Z,10.62
2023-05-11T20:35:28.369Z,10.65
2023-05-11T20:37:54.983Z,10.66
2023-05-11T20:40:21.892Z,10.68
2023-05-11T20:42:48.524Z,10.69
2023-05-11T20:45:16.970Z,10.64
2023-05-11T20:47:44.959Z,10.64
2023-05-11T20:50:11.674Z,10.63
2023-05-11T20:52:38.324Z,10.67
2023-05-11T20:55:06.185Z,10.71
2023-05-11T20:57:33.929Z,10.72
2023-05-11T21:02:30.340Z,10.67
2023-05-11T21:04:57.050Z,10.66
2023-05-11T21:07:23.881Z,10.64
2023-05-11T21:09:50.563Z,10.61
2023-05-11T21:12:16.896Z,10.59
2023-05-11T21:14:46.155Z,10.57
2023-05-11T21:17:13.023Z,10.51
2023-05-11T21:19:39.630Z,10.47
2023-05-11T21:22:07.668Z,10.44
2023-05-11T21:24:37.706Z,10.43
2023-05-11T21:27:05.057Z,10.40
2023-05-11T21:29:32.096Z,10.40
2023-05-11T21:31:59.005Z,10.37
2023-05-11T21:34:26.818Z,10.33
2023-05-11T21:36:54.785Z,10.24
2023-05-11T21:39:21.436Z,10.16
2023-05-11T21:41:48.163Z,10.12
2023-05-11T21:44:14.670Z,10.08
2023-05-11T21:46:41.306Z,10.03
2023-05-11T21:49:07.992Z,10.03
2023-05-11T21:51:34.588Z,9.95
2023-05-11T21:54:01.740Z,9.91
2023-05-11T21:56:29.299Z,9.92
2023-05-11T21:58:58.048Z,9.94
2023-05-11T22:01:24.578Z,9.95
2023-05-11T22:03:51.653Z,9.91
2023-05-11T22:06:19.471Z,9.89
2023-05-11T22:08:48.533Z,9.82
2023-05-11T22:11:15.480Z,9.85
2023-05-11T22:13:42.004Z,9.84
2023-05-11T22:16:08.514Z,9.82
2023-05-11T22:18:35.638Z,9.82
2023-05-11T22:21:02.235Z,9.73
2023-05-11T22:23:28.708Z,9.78
2023-05-11T22:25:55.210Z,9.75
2023-05-11T22:28:22.155Z,9.72
2023-05-11T22:30:48.829Z,9.71
2023-05-11T22:33:15.626Z,9.72
2023-05-11T22:35:42.626Z,9.68
2023-05-11T22:38:09.140Z,9.70
2023-05-11T22:40:35.969Z,9.73
2023-05-11T22:43:02.801Z,9.66
2023-05-11T22:45:29.354Z,9.64
2023-05-11T22:47:57.606Z,9.64
2023-05-11T22:50:31.438Z,9.63
2023-05-11T22:52:58.081Z,9.64
2023-05-11T22:55:25.056Z,9.64
2023-05-11T22:57:52.477Z,9.65
2023-05-11T23:00:19.898Z,9.66
2023-05-11T23:02:46.870Z,9.66
2023-05-11T23:05:13.749Z,9.66
2023-05-11T23:07:41.560Z,9.69
2023-05-11T23:10:08.373Z,9.73
2023-05-11T23:12:35.112Z,9.75
2023-05-11T23:15:02.027Z,9.77
2023-05-11T23:17:28.716Z,9.79
2023-05-11T23:19:55.577Z,9.77
2023-05-11T23:22:22.293Z,9.77
2023-05-11T23:24:48.801Z,9.78
2023-05-11T23:27:16.909Z,9.79
2023-05-11T23:29:43.533Z,9.75
2023-05-11T23:32:10.439Z,9.79
2023-05-11T23:34:37.320Z,9.83
2023-05-11T23:37:03.959Z,9.86
2023-05-11T23:39:30.882Z,9.86
2023-05-11T23:41:57.303Z,9.92
2023-05-11T23:44:23.897Z,9.91
2023-05-11T23:46:50.742Z,9.87
2023-05-11T23:49:17.451Z,9.77
2023-05-11T23:51:44.304Z,9.64
2023-05-11T23:54:14.044Z,9.64
2023-05-11T23:56:40.822Z,9.65
2023-05-11T23:59:07.439Z,9.65
